Ash Grove, Nebraska
Current Conditions -  °F | °C
As of 11:55 AM on Sunday 25 Jan 2015 (Local Time) from KHDE Reporting Station
Clear Clear  
Wind Chill:   Ceiling: Unl
Heat Index:   Visibility: 10mi
Dew Point: -2°   Wind: 20mph
Humidity: 54%   Direction: 350°N
Pressure: 30.05"   Gusts: 30mph
Location:  40.1734°N, 98.8989°W
Report Text: KHDE 251755Z AUTO 35017G26KT 10SM CLR 07/M02 A3005 RMK AO2 T00661022 10066 20022
Loading
Personal Weather Stations






























Interactive Weather Map New forecast layout! Learn more

10-Day Weather Forecast

Advertisements
Track Severe Weather on mobile